createdAt,value
2023-02-09T00:01:28.897Z,102511.94
2023-02-09T00:03:56.657Z,102505.84
2023-02-09T00:06:25.037Z,102505.28
2023-02-09T00:08:53.856Z,102499.69
2023-02-09T00:11:45.270Z,102503.69
2023-02-09T00:14:12.438Z,102501.28
2023-02-09T00:16:40.468Z,102503.88
2023-02-09T00:19:08.122Z,102495.97
2023-02-09T00:21:35.645Z,102494.84
2023-02-09T00:24:03.167Z,102494.66
2023-02-09T00:26:32.141Z,102497.66
2023-02-09T00:28:59.749Z,102498.47
2023-02-09T00:31:27.747Z,102500.88
2023-02-09T00:33:55.282Z,102492.72
2023-02-09T00:36:22.816Z,102484.84
2023-02-09T00:38:50.332Z,102488.88
2023-02-09T00:41:18.361Z,102488.97
2023-02-09T00:43:47.209Z,102485.09
2023-02-09T00:46:14.716Z,102470.44
2023-02-09T00:48:42.212Z,102466.75
2023-02-09T00:51:09.722Z,102465.31
2023-02-09T00:53:37.214Z,102456.50
2023-02-09T00:56:05.097Z,102461.13
2023-02-09T00:58:32.572Z,102454.00
2023-02-09T01:01:01.449Z,102457.13
2023-02-09T01:03:28.990Z,102462.56
2023-02-09T01:05:59.777Z,102470.97
2023-02-09T01:08:27.314Z,102473.00
2023-02-09T01:10:54.905Z,102474.69
2023-02-09T01:13:22.455Z,102467.69
2023-02-09T01:15:49.994Z,102469.41
2023-02-09T01:18:18.932Z,102464.41
2023-02-09T01:20:46.713Z,102464.31
2023-02-09T01:23:14.407Z,102455.03
2023-02-09T01:25:41.967Z,102449.34
2023-02-09T01:28:09.545Z,102445.91
2023-02-09T01:30:37.116Z,102442.88
2023-02-09T01:33:04.675Z,102440.38
2023-02-09T01:35:33.515Z,102450.19
2023-02-09T01:38:01.028Z,102442.31
2023-02-09T01:40:28.525Z,102435.16
2023-02-09T01:42:55.987Z,102433.91
2023-02-09T01:45:28.997Z,102428.91
2023-02-09T01:48:00.023Z,102431.50
2023-02-09T01:50:28.830Z,102427.88
2023-02-09T01:52:57.791Z,102433.63
2023-02-09T01:55:27.080Z,102439.25
2023-02-09T01:57:57.427Z,102427.19
2023-02-09T02:00:25.724Z,102425.88
2023-02-09T02:02:55.854Z,102411.47
2023-02-09T02:05:23.819Z,102410.88
2023-02-09T02:07:57.882Z,102409.94
2023-02-09T02:10:25.814Z,102406.44
2023-02-09T02:12:54.381Z,102406.06
2023-02-09T02:15:23.202Z,102409.47
2023-02-09T02:18:03.440Z,102399.84
2023-02-09T02:21:00.258Z,102396.09
2023-02-09T02:23:31.810Z,102392.13
2023-02-09T02:26:36.568Z,102382.66
2023-02-09T02:29:30.717Z,102383.53
2023-02-09T02:32:07.162Z,102382.03
2023-02-09T02:34:43.473Z,102378.28
2023-02-09T02:37:17.422Z,102388.66
2023-02-09T02:39:51.775Z,102381.22
2023-02-09T02:42:41.023Z,102381.84
2023-02-09T02:45:13.326Z,102379.50
2023-02-09T02:47:43.692Z,102365.91
2023-02-09T02:50:13.678Z,102367.50
2023-02-09T02:52:43.713Z,102372.63
2023-02-09T02:55:15.188Z,102368.63
2023-02-09T02:57:44.599Z,102368.84
2023-02-09T03:00:14.894Z,102373.94
2023-02-09T03:02:45.294Z,102370.19
2023-02-09T03:05:12.912Z,102368.31
2023-02-09T03:07:40.395Z,102378.03
2023-02-09T03:10:26.851Z,102370.34
2023-02-09T03:13:02.778Z,102372.66
2023-02-09T03:15:34.281Z,102381.56
2023-02-09T03:18:15.351Z,102368.66
2023-02-09T03:20:45.004Z,102378.69
2023-02-09T03:23:17.186Z,102381.66
2023-02-09T03:25:46.625Z,102388.22
2023-02-09T03:28:18.219Z,102385.28
2023-02-09T03:30:49.656Z,102384.84
2023-02-09T03:33:23.090Z,102378.19
2023-02-09T03:35:53.267Z,102378.97
2023-02-09T03:38:20.735Z,102382.31
2023-02-09T03:40:48.505Z,102385.19
2023-02-09T03:43:16.000Z,102383.72
2023-02-09T03:45:43.515Z,102386.81
2023-02-09T03:48:10.980Z,102382.03
2023-02-09T03:50:39.800Z,102373.53
2023-02-09T03:53:07.295Z,102376.41
2023-02-09T03:55:35.768Z,102375.56
2023-02-09T03:58:03.833Z,102380.22
2023-02-09T04:00:31.474Z,102393.75
2023-02-09T04:02:59.231Z,102388.25
2023-02-09T04:05:26.757Z,102384.28
2023-02-09T04:07:55.598Z,102388.53
2023-02-09T04:10:23.139Z,102391.69
2023-02-09T04:12:50.659Z,102371.63
2023-02-09T04:15:18.208Z,102379.91
2023-02-09T04:17:45.717Z,102368.88
2023-02-09T04:20:13.212Z,102373.66
2023-02-09T04:22:40.910Z,102386.44
2023-02-09T04:25:09.861Z,102380.66
2023-02-09T04:27:37.363Z,102370.03
2023-02-09T04:30:05.270Z,102366.78
2023-02-09T04:32:32.763Z,102374.91
2023-02-09T04:35:00.226Z,102376.44
2023-02-09T04:37:27.887Z,102374.88
2023-02-09T04:39:55.672Z,102380.50
2023-02-09T04:42:24.758Z,102379.78
2023-02-09T04:44:52.330Z,102380.75
2023-02-09T04:47:19.824Z,102373.28
2023-02-09T04:49:47.288Z,102381.50
2023-02-09T04:52:14.826Z,102376.31
2023-02-09T04:54:42.300Z,102380.28
2023-02-09T04:57:27.790Z,102362.16
2023-02-09T04:59:56.893Z,102375.69
2023-02-09T05:02:24.387Z,102372.16
2023-02-09T05:04:51.863Z,102375.41
2023-02-09T05:07:19.398Z,102374.72
2023-02-09T05:09:46.931Z,102373.75
2023-02-09T05:12:14.456Z,102383.97
2023-02-09T05:14:41.953Z,102378.00
2023-02-09T05:17:10.831Z,102384.38
2023-02-09T05:19:38.304Z,102387.19
2023-02-09T05:22:05.827Z,102386.38
2023-02-09T05:24:33.350Z,102387.97
2023-02-09T05:27:00.843Z,102389.25
2023-02-09T05:29:28.562Z,102390.19
2023-02-09T05:31:56.099Z,102394.88
2023-02-09T05:34:25.029Z,102390.03
2023-02-09T05:36:52.506Z,102399.97
2023-02-09T05:39:20.174Z,102394.75
2023-02-09T05:42:05.511Z,102391.19
2023-02-09T05:44:33.028Z,102391.72
2023-02-09T05:47:00.500Z,102388.97
2023-02-09T05:49:29.285Z,102383.41
2023-02-09T05:51:56.779Z,102377.19
2023-02-09T05:54:24.257Z,102388.00
2023-02-09T05:56:51.768Z,102377.81
2023-02-09T05:59:19.462Z,102373.41
2023-02-09T06:01:47.159Z,102387.81
2023-02-09T06:04:14.736Z,102382.72
2023-02-09T06:06:43.854Z,102373.59
2023-02-09T06:09:11.393Z,102381.03
2023-02-09T06:11:38.855Z,102380.00
2023-02-09T06:14:06.549Z,102389.22
2023-02-09T06:16:34.108Z,102387.66
2023-02-09T06:19:01.605Z,102390.75
2023-02-09T06:21:29.328Z,102396.44
2023-02-09T06:23:58.229Z,102382.53
2023-02-09T06:26:25.804Z,102390.59
2023-02-09T06:28:53.337Z,102399.28
2023-02-09T06:31:20.938Z,102411.84
2023-02-09T06:33:48.524Z,102410.03
2023-02-09T06:36:16.046Z,102409.00
2023-02-09T06:38:43.542Z,102400.19
2023-02-09T06:41:12.402Z,102406.28
2023-02-09T06:43:39.913Z,102417.94
2023-02-09T06:46:08.072Z,102414.41
2023-02-09T06:48:35.755Z,102422.06
2023-02-09T06:51:03.228Z,102419.53
2023-02-09T06:53:30.938Z,102412.22
2023-02-09T06:56:01.282Z,102415.31
2023-02-09T06:58:30.156Z,102413.41
2023-02-09T07:01:02.916Z,102419.03
2023-02-09T07:03:30.859Z,102422.56
2023-02-09T07:06:04.024Z,102424.56
2023-02-09T07:08:31.574Z,102429.75
2023-02-09T07:11:02.581Z,102424.81
2023-02-09T07:13:31.835Z,102423.44
2023-02-09T07:16:08.561Z,102429.41
2023-02-09T07:18:36.324Z,102419.47
2023-02-09T07:21:05.650Z,102434.50
2023-02-09T07:23:33.308Z,102432.72
2023-02-09T07:26:03.331Z,102435.69
2023-02-09T07:28:32.897Z,102436.38
2023-02-09T07:31:04.449Z,102431.25
2023-02-09T07:33:32.297Z,102430.34
2023-02-09T07:35:59.890Z,102435.13
2023-02-09T07:38:27.579Z,102432.47
2023-02-09T07:40:55.110Z,102435.28
2023-02-09T07:43:22.593Z,102441.28
2023-02-09T07:45:51.555Z,102446.16
2023-02-09T07:48:19.095Z,102442.47
2023-02-09T07:50:49.886Z,102448.59
2023-02-09T07:53:17.483Z,102441.63
2023-02-09T07:55:45.250Z,102440.56
2023-02-09T07:58:12.908Z,102444.22
2023-02-09T08:00:40.380Z,102454.34
2023-02-09T08:03:09.305Z,102451.75
2023-02-09T08:05:42.424Z,102456.03
2023-02-09T08:08:09.945Z,102453.34
2023-02-09T08:10:37.746Z,102454.38
2023-02-09T08:13:05.407Z,102459.84
2023-02-09T08:15:38.864Z,102458.50
2023-02-09T08:18:12.905Z,102455.09
2023-02-09T08:20:40.855Z,102452.66
2023-02-09T08:23:10.549Z,102456.72
2023-02-09T08:25:38.276Z,102458.28
2023-02-09T08:28:06.415Z,102456.16
2023-02-09T08:30:34.943Z,102461.34
2023-02-09T08:33:02.881Z,102453.97
2023-02-09T08:35:31.912Z,102464.09
2023-02-09T08:38:03.428Z,102449.09
2023-02-09T08:40:31.340Z,102450.28
2023-02-09T08:42:58.836Z,102452.63
2023-02-09T08:45:26.404Z,102445.41
2023-02-09T08:47:53.904Z,102453.81
2023-02-09T08:50:21.397Z,102458.94
2023-02-09T08:52:51.255Z,102464.22
2023-02-09T08:55:18.780Z,102464.34
2023-02-09T08:57:46.292Z,102463.41
2023-02-09T09:00:15.173Z,102467.59
2023-02-09T09:02:42.783Z,102468.59
2023-02-09T09:05:10.381Z,102467.03
2023-02-09T09:07:37.932Z,102468.59
2023-02-09T09:10:09.197Z,102465.91
2023-02-09T09:12:36.975Z,102462.00
2023-02-09T09:15:04.949Z,102454.81
2023-02-09T09:17:32.481Z,102446.53
2023-02-09T09:20:00.004Z,102445.31
2023-02-09T09:22:27.541Z,102445.91
2023-02-09T09:24:55.406Z,102437.91
2023-02-09T09:27:26.855Z,102432.34
2023-02-09T09:29:54.571Z,102433.75
2023-02-09T09:32:24.582Z,102428.41
2023-02-09T09:34:54.059Z,102429.94
2023-02-09T09:37:21.673Z,102431.03
2023-02-09T09:39:49.877Z,102437.69
2023-02-09T09:42:25.426Z,102433.41
2023-02-09T09:44:53.478Z,102438.31
2023-02-09T09:47:23.601Z,102434.91
2023-02-09T09:49:51.133Z,102436.22
2023-02-09T09:52:30.286Z,102439.25
2023-02-09T09:54:58.372Z,102439.19
2023-02-09T09:57:29.494Z,102430.13
2023-02-09T09:59:57.860Z,102432.16
2023-02-09T10:02:28.193Z,102436.25
2023-02-09T10:04:57.425Z,102437.13
2023-02-09T10:07:31.501Z,102440.84
2023-02-09T10:10:03.034Z,102442.31
2023-02-09T10:12:37.356Z,102445.78
2023-02-09T10:15:18.999Z,102443.28
2023-02-09T10:17:46.519Z,102450.00
2023-02-09T10:20:14.518Z,102442.34
2023-02-09T10:22:44.914Z,102448.97
2023-02-09T10:25:38.815Z,102448.91
2023-02-09T10:28:19.777Z,102449.44
2023-02-09T10:30:48.016Z,102449.97
2023-02-09T10:33:16.085Z,102451.69
2023-02-09T10:35:46.293Z,102456.06
2023-02-09T10:38:17.442Z,102452.03
2023-02-09T10:40:47.448Z,102447.44
2023-02-09T10:43:23.240Z,102443.75
2023-02-09T10:45:54.878Z,102430.53
2023-02-09T10:48:23.128Z,102430.69
2023-02-09T10:50:52.923Z,102435.50
2023-02-09T10:53:23.928Z,102433.53
2023-02-09T10:55:52.343Z,102442.84
2023-02-09T10:58:26.841Z,102441.47
2023-02-09T11:01:00.902Z,102439.56
2023-02-09T11:03:29.162Z,102433.22
2023-02-09T11:06:02.776Z,102431.06
2023-02-09T11:08:38.899Z,102437.03
2023-02-09T11:11:09.045Z,102444.22
2023-02-09T11:13:37.975Z,102445.97
2023-02-09T11:16:21.567Z,102444.44
2023-02-09T11:18:54.721Z,102429.34
2023-02-09T11:21:30.435Z,102430.88
2023-02-09T11:24:01.845Z,102429.56
2023-02-09T11:26:37.374Z,102432.19
2023-02-09T11:29:11.381Z,102418.84
2023-02-09T11:31:48.135Z,102421.06
2023-02-09T11:34:28.989Z,102422.19
2023-02-09T11:37:02.011Z,102425.03
2023-02-09T11:39:38.435Z,102421.16
2023-02-09T11:42:25.824Z,102419.84
2023-02-09T11:44:57.404Z,102421.38
2023-02-09T11:47:29.498Z,102411.97
2023-02-09T11:50:00.467Z,102414.91
2023-02-09T11:52:31.334Z,102420.16
2023-02-09T11:55:01.965Z,102413.03
2023-02-09T11:57:34.743Z,102410.50
2023-02-09T12:00:06.688Z,102413.19
2023-02-09T12:02:46.092Z,102402.31
2023-02-09T12:05:17.829Z,102408.19
2023-02-09T12:07:56.158Z,102409.94
2023-02-09T12:10:28.606Z,102417.66
2023-02-09T12:13:00.009Z,102411.44
2023-02-09T12:15:31.827Z,102400.03
2023-02-09T12:18:02.107Z,102402.94
2023-02-09T12:20:31.544Z,102403.28
2023-02-09T12:23:02.108Z,102385.84
2023-02-09T12:25:51.424Z,102379.22
2023-02-09T12:28:40.330Z,102386.44
2023-02-09T12:31:21.803Z,102389.66
2023-02-09T12:34:10.719Z,102387.91
2023-02-09T12:36:38.345Z,102386.19
2023-02-09T12:39:24.185Z,102376.88
2023-02-09T12:42:37.522Z,102378.13
2023-02-09T12:45:31.652Z,102378.97
2023-02-09T12:48:01.881Z,102395.66
2023-02-09T12:50:36.760Z,102379.75
2023-02-09T12:53:34.492Z,102393.72
2023-02-09T12:56:04.795Z,102385.91
2023-02-09T12:58:37.130Z,102389.50
2023-02-09T13:01:04.804Z,102390.84
2023-02-09T13:03:41.769Z,102386.31
2023-02-09T13:06:24.059Z,102377.88
2023-02-09T13:08:54.480Z,102374.47
2023-02-09T13:11:30.542Z,102371.09
2023-02-09T13:13:59.497Z,102370.69
2023-02-09T13:16:38.264Z,102368.09
2023-02-09T13:19:16.077Z,102384.38
2023-02-09T13:21:53.214Z,102380.88
2023-02-09T13:24:23.700Z,102383.75
2023-02-09T13:26:52.752Z,102371.00
2023-02-09T13:29:22.470Z,102377.97
2023-02-09T13:31:58.048Z,102380.00
2023-02-09T13:34:32.465Z,102392.88
2023-02-09T13:37:07.683Z,102379.38
2023-02-09T13:39:38.269Z,102384.88
2023-02-09T13:42:19.767Z,102381.03
2023-02-09T13:44:48.956Z,102371.94
2023-02-09T13:47:17.106Z,102371.66
2023-02-09T13:49:56.497Z,102369.75
2023-02-09T13:52:26.617Z,102371.00
2023-02-09T13:54:54.901Z,102366.81
2023-02-09T13:57:31.975Z,102366.03
2023-02-09T14:00:06.139Z,102362.09
2023-02-09T14:02:36.123Z,102363.59
2023-02-09T14:05:06.806Z,102366.63
2023-02-09T14:07:36.194Z,102368.50
2023-02-09T14:10:06.653Z,102369.44
2023-02-09T14:12:55.581Z,102364.75
2023-02-09T14:15:45.517Z,102361.75
2023-02-09T14:18:41.484Z,102357.22
2023-02-09T14:21:27.583Z,102361.75
2023-02-09T14:24:21.027Z,102351.69
2023-02-09T14:26:54.525Z,102359.09
2023-02-09T14:29:27.680Z,102360.03
2023-02-09T14:31:57.155Z,102360.31
2023-02-09T14:34:29.487Z,102363.63
2023-02-09T14:37:00.321Z,102373.41
2023-02-09T14:39:31.073Z,102376.31
2023-02-09T14:42:01.464Z,102371.50
2023-02-09T14:44:29.632Z,102363.50
2023-02-09T14:46:58.744Z,102368.03
2023-02-09T14:49:26.993Z,102356.50
2023-02-09T14:52:05.861Z,102360.50
2023-02-09T14:54:35.736Z,102358.94
2023-02-09T14:57:03.805Z,102362.13
2023-02-09T14:59:31.764Z,102358.63
2023-02-09T15:01:59.306Z,102356.09
2023-02-09T15:04:26.989Z,102357.50
2023-02-09T15:07:01.261Z,102352.72
2023-02-09T15:09:35.245Z,102349.69
2023-02-09T15:12:06.369Z,102355.72
2023-02-09T15:14:36.882Z,102363.44
2023-02-09T15:17:14.513Z,102371.25
2023-02-09T15:19:42.487Z,102368.84
2023-02-09T15:22:13.504Z,102364.72
2023-02-09T15:24:42.689Z,102384.28
2023-02-09T15:27:15.091Z,102368.53
2023-02-09T15:29:42.635Z,102361.94
2023-02-09T15:32:14.731Z,102367.91
2023-02-09T15:34:42.430Z,102362.38
2023-02-09T15:37:17.233Z,102368.78
2023-02-09T15:39:46.212Z,102371.50
2023-02-09T15:42:33.791Z,102386.16
2023-02-09T15:45:35.705Z,102382.63
2023-02-09T15:48:03.527Z,102396.06
2023-02-09T15:50:32.829Z,102409.69
2023-02-09T15:53:00.423Z,102403.84
2023-02-09T15:55:29.564Z,102401.13
2023-02-09T15:57:57.479Z,102389.22
2023-02-09T16:00:27.049Z,102391.50
2023-02-09T16:02:55.199Z,102391.16
2023-02-09T16:05:23.736Z,102388.78
2023-02-09T16:07:52.137Z,102381.22
2023-02-09T16:10:22.981Z,102377.00
2023-02-09T16:12:52.343Z,102378.16
2023-02-09T16:15:21.809Z,102382.78
2023-02-09T16:17:49.835Z,102380.50
2023-02-09T16:20:17.800Z,102382.22
2023-02-09T16:22:47.232Z,102385.34
2023-02-09T16:25:19.991Z,102391.44
2023-02-09T16:27:47.539Z,102396.59
2023-02-09T16:30:21.956Z,102410.25
2023-02-09T16:32:49.785Z,102415.00
2023-02-09T16:35:18.227Z,102415.31
2023-02-09T16:37:47.989Z,102412.94
2023-02-09T16:40:23.329Z,102424.44
2023-02-09T16:42:51.128Z,102419.50
2023-02-09T16:45:23.328Z,102430.25
2023-02-09T16:47:54.851Z,102435.06
2023-02-09T16:50:24.908Z,102438.09
2023-02-09T16:52:53.806Z,102428.44
2023-02-09T16:55:25.120Z,102424.59
2023-02-09T16:57:54.756Z,102433.44
2023-02-09T17:00:25.369Z,102434.97
2023-02-09T17:02:54.874Z,102429.09
2023-02-09T17:05:25.854Z,102442.78
2023-02-09T17:07:55.551Z,102442.44
2023-02-09T17:10:25.740Z,102442.44
2023-02-09T17:12:53.868Z,102436.66
2023-02-09T17:15:30.728Z,102446.97
2023-02-09T17:18:02.461Z,102450.41
2023-02-09T17:20:34.466Z,102450.72
2023-02-09T17:23:01.998Z,102454.56
2023-02-09T17:25:29.592Z,102468.16
2023-02-09T17:27:57.182Z,102449.03
2023-02-09T17:30:26.065Z,102454.53
2023-02-09T17:32:59.408Z,102451.28
2023-02-09T17:35:52.930Z,102468.38
2023-02-09T17:38:21.219Z,102457.69
2023-02-09T17:40:48.794Z,102462.91
2023-02-09T17:43:16.234Z,102479.13
2023-02-09T17:45:48.911Z,102483.22
2023-02-09T17:48:17.358Z,102476.41
2023-02-09T17:50:46.333Z,102473.63
2023-02-09T17:53:16.249Z,102472.03
2023-02-09T17:55:45.024Z,102475.75
2023-02-09T17:58:14.249Z,102465.63
2023-02-09T18:00:42.673Z,102471.00
2023-02-09T18:03:16.793Z,102473.75
2023-02-09T18:05:45.375Z,102486.16
2023-02-09T18:08:16.612Z,102485.44
2023-02-09T18:10:44.283Z,102484.84
2023-02-09T18:13:17.236Z,102494.66
2023-02-09T18:15:45.369Z,102495.44
2023-02-09T18:18:14.674Z,102501.75
2023-02-09T18:20:43.761Z,102497.59
2023-02-09T18:23:14.252Z,102480.84
2023-02-09T18:25:46.275Z,102488.06
2023-02-09T18:28:16.233Z,102495.53
2023-02-09T18:30:46.957Z,102493.59
2023-02-09T18:33:18.538Z,102501.16
2023-02-09T18:35:46.491Z,102499.03
2023-02-09T18:38:15.648Z,102496.41
2023-02-09T18:40:43.291Z,102491.84
2023-02-09T18:43:14.461Z,102506.56
2023-02-09T18:45:41.970Z,102517.28
2023-02-09T18:48:10.105Z,102517.66
2023-02-09T18:50:40.071Z,102526.47
2023-02-09T18:53:07.662Z,102539.00
2023-02-09T18:55:35.661Z,102536.38
2023-02-09T18:58:04.911Z,102537.38
2023-02-09T19:00:32.682Z,102533.38
2023-02-09T19:03:00.661Z,102530.94
2023-02-09T19:05:30.088Z,102532.28
2023-02-09T19:07:59.564Z,102527.59
2023-02-09T19:10:29.506Z,102532.00
2023-02-09T19:12:58.788Z,102539.63
2023-02-09T19:15:26.575Z,102537.06
2023-02-09T19:17:56.729Z,102548.09
2023-02-09T19:20:27.017Z,102551.44
2023-02-09T19:22:55.304Z,102550.44
2023-02-09T19:25:26.759Z,102555.88
2023-02-09T19:27:55.065Z,102554.53
2023-02-09T19:30:25.121Z,102551.09
2023-02-09T19:32:54.424Z,102549.00
2023-02-09T19:35:23.042Z,102548.66
2023-02-09T19:37:52.207Z,102550.75
2023-02-09T19:40:27.973Z,102558.09
2023-02-09T19:42:57.769Z,102556.28
2023-02-09T19:45:25.523Z,102553.00
2023-02-09T19:47:53.366Z,102559.41
2023-02-09T19:50:21.478Z,102557.03
2023-02-09T19:52:50.301Z,102549.00
2023-02-09T19:55:18.360Z,102562.06
2023-02-09T19:57:46.375Z,102570.09
2023-02-09T20:00:18.523Z,102568.94
2023-02-09T20:02:46.492Z,102576.59
2023-02-09T20:05:16.098Z,102579.72
2023-02-09T20:07:44.279Z,102581.53
2023-02-09T20:10:12.048Z,102581.66
2023-02-09T20:12:39.881Z,102585.41
2023-02-09T20:15:08.076Z,102588.91
2023-02-09T20:17:37.236Z,102595.25
2023-02-09T20:20:05.650Z,102590.06
2023-02-09T20:22:36.906Z,102589.13
2023-02-09T20:25:04.752Z,102584.44
2023-02-09T20:27:32.448Z,102588.41
2023-02-09T20:30:02.589Z,102590.50
2023-02-09T20:32:30.712Z,102591.22
2023-02-09T20:35:02.074Z,102595.63
2023-02-09T20:37:32.361Z,102585.41
2023-02-09T20:40:01.639Z,102590.75
2023-02-09T20:42:46.971Z,102587.28
2023-02-09T20:45:33.233Z,102595.47
2023-02-09T20:48:01.271Z,102596.94
2023-02-09T20:50:32.800Z,102601.34
2023-02-09T20:53:01.461Z,102604.78
2023-02-09T20:55:30.509Z,102597.22
2023-02-09T20:57:58.315Z,102604.78
2023-02-09T21:00:26.065Z,102597.13
2023-02-09T21:02:53.855Z,102600.53
2023-02-09T21:05:21.749Z,102596.81
2023-02-09T21:07:52.139Z,102598.56
2023-02-09T21:10:19.883Z,102587.28
2023-02-09T21:12:47.623Z,102585.59
2023-02-09T21:15:15.517Z,102590.16
2023-02-09T21:17:47.799Z,102587.44
2023-02-09T21:20:15.958Z,102598.63
2023-02-09T21:22:43.811Z,102600.50
2023-02-09T21:25:13.889Z,102607.25
2023-02-09T21:27:41.712Z,102596.63
2023-02-09T21:30:10.412Z,102600.75
2023-02-09T21:32:38.477Z,102595.97
2023-02-09T21:35:10.270Z,102596.34
2023-02-09T21:37:39.179Z,102598.59
2023-02-09T21:40:09.879Z,102597.25
2023-02-09T21:42:39.519Z,102594.56
2023-02-09T21:45:08.110Z,102595.44
2023-02-09T21:47:38.464Z,102584.94
2023-02-09T21:50:08.322Z,102592.94
2023-02-09T21:52:36.309Z,102594.88
2023-02-09T21:55:04.109Z,102604.06
2023-02-09T21:57:31.930Z,102594.16
2023-02-09T22:00:05.345Z,102595.25
2023-02-09T22:02:33.063Z,102587.19
2023-02-09T22:05:00.730Z,102590.22
2023-02-09T22:07:28.853Z,102588.31
2023-02-09T22:09:56.528Z,102593.75
2023-02-09T22:12:24.225Z,102592.34
2023-02-09T22:14:52.048Z,102597.16
2023-02-09T22:17:21.074Z,102603.19
2023-02-09T22:19:48.633Z,102598.88
2023-02-09T22:22:16.297Z,102601.47
2023-02-09T22:24:44.009Z,102604.53
2023-02-09T22:27:11.638Z,102598.66
2023-02-09T22:29:39.398Z,102603.38
2023-02-09T22:32:07.054Z,102595.97
2023-02-09T22:34:36.144Z,102590.66
2023-02-09T22:37:04.280Z,102595.06
2023-02-09T22:39:32.411Z,102600.66
2023-02-09T22:42:00.797Z,102595.59
2023-02-09T22:44:30.003Z,102610.53
2023-02-09T22:46:57.897Z,102608.47
2023-02-09T22:49:25.789Z,102615.25
2023-02-09T22:51:54.858Z,102613.06
2023-02-09T22:54:24.359Z,102608.13
2023-02-09T22:56:53.566Z,102608.38
2023-02-09T22:59:23.896Z,102598.19
2023-02-09T23:01:53.207Z,102602.28
2023-02-09T23:04:21.170Z,102600.47
2023-02-09T23:06:51.566Z,102603.31
2023-02-09T23:09:21.933Z,102600.03
2023-02-09T23:11:49.568Z,102589.34
2023-02-09T23:14:17.780Z,102610.78
2023-02-09T23:16:46.457Z,102607.03
2023-02-09T23:19:16.046Z,102606.75
2023-02-09T23:21:45.504Z,102613.78
2023-02-09T23:24:14.006Z,102612.91
2023-02-09T23:26:43.371Z,102614.88
2023-02-09T23:29:13.347Z,102603.97
2023-02-09T23:31:42.918Z,102604.00
2023-02-09T23:34:13.354Z,102612.56
2023-02-09T23:36:41.138Z,102626.38
2023-02-09T23:39:08.878Z,102620.00
2023-02-09T23:41:39.047Z,102622.19
2023-02-09T23:44:08.085Z,102621.34
2023-02-09T23:46:37.474Z,102621.41
2023-02-09T23:49:05.086Z,102626.22
2023-02-09T23:51:34.378Z,102623.06
2023-02-09T23:54:04.890Z,102623.66
2023-02-09T23:56:36.810Z,102639.38
2023-02-09T23:59:05.357Z,102638.16
